sensor_id;sensor_type;location;lat;lon;timestamp;P1;durP1;ratioP1;P2;durP2;ratioP2
77880;SDS011;67077;50.298;18.996;2023-07-13T00:00:00;10.20;;;5.40;;
77880;SDS011;67077;50.298;18.996;2023-07-13T00:02:29;8.90;;;5.10;;
77880;SDS011;67077;50.298;18.996;2023-07-13T00:04:57;7.30;;;4.90;;
77880;SDS011;67077;50.298;18.996;2023-07-13T00:07:25;11.40;;;5.30;;
77880;SDS011;67077;50.298;18.996;2023-07-13T00:09:53;7.50;;;5.00;;
77880;SDS011;67077;50.298;18.996;2023-07-13T00:12:31;8.90;;;5.10;;
77880;SDS011;67077;50.298;18.996;2023-07-13T00:15:04;10.60;;;5.20;;
77880;SDS011;67077;50.298;18.996;2023-07-13T00:17:34;7.60;;;4.60;;
77880;SDS011;67077;50.298;18.996;2023-07-13T00:20:02;8.90;;;4.80;;
77880;SDS011;67077;50.298;18.996;2023-07-13T00:22:31;7.20;;;4.60;;
77880;SDS011;67077;50.298;18.996;2023-07-13T00:24:59;6.50;;;4.20;;
77880;SDS011;67077;50.298;18.996;2023-07-13T00:27:27;6.60;;;4.20;;
77880;SDS011;67077;50.298;18.996;2023-07-13T00:29:57;8.00;;;4.10;;
77880;SDS011;67077;50.298;18.996;2023-07-13T00:32:27;5.90;;;4.20;;
77880;SDS011;67077;50.298;18.996;2023-07-13T00:34:55;6.40;;;4.30;;
77880;SDS011;67077;50.298;18.996;2023-07-13T00:37:24;8.50;;;4.50;;
77880;SDS011;67077;50.298;18.996;2023-07-13T00:39:52;6.90;;;4.10;;
77880;SDS011;67077;50.298;18.996;2023-07-13T00:42:20;8.40;;;4.20;;
77880;SDS011;67077;50.298;18.996;2023-07-13T00:45:05;9.00;;;4.40;;
77880;SDS011;67077;50.298;18.996;2023-07-13T00:47:35;7.60;;;4.20;;
77880;SDS011;67077;50.298;18.996;2023-07-13T00:50:03;6.30;;;3.80;;
77880;SDS011;67077;50.298;18.996;2023-07-13T00:52:35;5.40;;;3.90;;
77880;SDS011;67077;50.298;18.996;2023-07-13T00:55:05;10.10;;;4.50;;
77880;SDS011;67077;50.298;18.996;2023-07-13T00:57:36;4.70;;;3.90;;
77880;SDS011;67077;50.298;18.996;2023-07-13T01:00:05;7.40;;;4.40;;
77880;SDS011;67077;50.298;18.996;2023-07-13T01:02:42;9.20;;;4.00;;
77880;SDS011;67077;50.298;18.996;2023-07-13T01:05:18;7.60;;;4.20;;
77880;SDS011;67077;50.298;18.996;2023-07-13T01:07:49;6.90;;;4.20;;
77880;SDS011;67077;50.298;18.996;2023-07-13T01:10:23;7.80;;;4.90;;
77880;SDS011;67077;50.298;18.996;2023-07-13T01:12:51;8.20;;;4.60;;
77880;SDS011;67077;50.298;18.996;2023-07-13T01:15:40;5.70;;;4.00;;
77880;SDS011;67077;50.298;18.996;2023-07-13T01:18:31;7.50;;;4.30;;
77880;SDS011;67077;50.298;18.996;2023-07-13T01:20:59;7.50;;;4.70;;
77880;SDS011;67077;50.298;18.996;2023-07-13T01:23:32;7.30;;;4.40;;
77880;SDS011;67077;50.298;18.996;2023-07-13T01:26:00;6.60;;;4.30;;
77880;SDS011;67077;50.298;18.996;2023-07-13T01:28:30;9.40;;;5.00;;
77880;SDS011;67077;50.298;18.996;2023-07-13T01:30:59;8.00;;;4.70;;
77880;SDS011;67077;50.298;18.996;2023-07-13T01:33:27;6.90;;;4.60;;
77880;SDS011;67077;50.298;18.996;2023-07-13T01:35:55;8.00;;;4.70;;
77880;SDS011;67077;50.298;18.996;2023-07-13T01:38:25;8.70;;;5.40;;
77880;SDS011;67077;50.298;18.996;2023-07-13T01:40:53;8.10;;;4.70;;
77880;SDS011;67077;50.298;18.996;2023-07-13T01:43:21;8.40;;;4.50;;
77880;SDS011;67077;50.298;18.996;2023-07-13T01:45:50;6.70;;;4.20;;
77880;SDS011;67077;50.298;18.996;2023-07-13T01:48:18;6.30;;;4.20;;
77880;SDS011;67077;50.298;18.996;2023-07-13T01:50:47;4.80;;;3.70;;
77880;SDS011;67077;50.298;18.996;2023-07-13T01:53:15;6.10;;;4.20;;
77880;SDS011;67077;50.298;18.996;2023-07-13T01:55:43;7.00;;;4.10;;
77880;SDS011;67077;50.298;18.996;2023-07-13T01:58:11;5.90;;;4.20;;
77880;SDS011;67077;50.298;18.996;2023-07-13T02:00:39;7.00;;;4.20;;
77880;SDS011;67077;50.298;18.996;2023-07-13T02:03:07;5.90;;;4.10;;
77880;SDS011;67077;50.298;18.996;2023-07-13T02:05:36;8.20;;;4.40;;
77880;SDS011;67077;50.298;18.996;2023-07-13T02:08:04;8.40;;;5.00;;
77880;SDS011;67077;50.298;18.996;2023-07-13T02:10:32;8.10;;;4.80;;
77880;SDS011;67077;50.298;18.996;2023-07-13T02:13:00;7.30;;;4.90;;
77880;SDS011;67077;50.298;18.996;2023-07-13T02:15:28;8.50;;;5.40;;
77880;SDS011;67077;50.298;18.996;2023-07-13T02:17:56;10.30;;;5.70;;
77880;SDS011;67077;50.298;18.996;2023-07-13T02:20:24;10.40;;;6.20;;
77880;SDS011;67077;50.298;18.996;2023-07-13T02:22:54;11.60;;;6.40;;
77880;SDS011;67077;50.298;18.996;2023-07-13T02:25:22;10.50;;;6.20;;
77880;SDS011;67077;50.298;18.996;2023-07-13T02:27:50;11.30;;;5.90;;
77880;SDS011;67077;50.298;18.996;2023-07-13T02:30:18;8.20;;;5.70;;
77880;SDS011;67077;50.298;18.996;2023-07-13T02:32:46;10.90;;;5.80;;
77880;SDS011;67077;50.298;18.996;2023-07-13T02:35:14;8.80;;;5.50;;
77880;SDS011;67077;50.298;18.996;2023-07-13T02:37:42;7.80;;;5.00;;
77880;SDS011;67077;50.298;18.996;2023-07-13T02:40:10;7.30;;;4.80;;
77880;SDS011;67077;50.298;18.996;2023-07-13T02:42:39;6.90;;;4.90;;
77880;SDS011;67077;50.298;18.996;2023-07-13T02:45:07;7.00;;;4.60;;
77880;SDS011;67077;50.298;18.996;2023-07-13T02:47:36;7.00;;;4.40;;
77880;SDS011;67077;50.298;18.996;2023-07-13T02:50:04;9.30;;;4.70;;
77880;SDS011;67077;50.298;18.996;2023-07-13T02:52:33;6.40;;;4.50;;
77880;SDS011;67077;50.298;18.996;2023-07-13T02:55:01;7.10;;;4.50;;
77880;SDS011;67077;50.298;18.996;2023-07-13T02:57:30;5.40;;;4.00;;
77880;SDS011;67077;50.298;18.996;2023-07-13T03:00:01;5.80;;;3.90;;
77880;SDS011;67077;50.298;18.996;2023-07-13T03:02:33;5.80;;;4.10;;
77880;SDS011;67077;50.298;18.996;2023-07-13T03:05:02;5.00;;;4.00;;
77880;SDS011;67077;50.298;18.996;2023-07-13T03:07:30;6.40;;;4.20;;
77880;SDS011;67077;50.298;18.996;2023-07-13T03:09:58;6.60;;;4.30;;
77880;SDS011;67077;50.298;18.996;2023-07-13T03:12:26;8.00;;;4.20;;
77880;SDS011;67077;50.298;18.996;2023-07-13T03:14:54;8.00;;;4.20;;
77880;SDS011;67077;50.298;18.996;2023-07-13T03:17:22;6.40;;;4.50;;
77880;SDS011;67077;50.298;18.996;2023-07-13T03:19:50;7.30;;;4.50;;
77880;SDS011;67077;50.298;18.996;2023-07-13T03:22:19;8.30;;;4.30;;
77880;SDS011;67077;50.298;18.996;2023-07-13T03:24:47;6.50;;;4.70;;
77880;SDS011;67077;50.298;18.996;2023-07-13T03:27:16;7.10;;;4.30;;
77880;SDS011;67077;50.298;18.996;2023-07-13T03:29:45;8.30;;;4.60;;
77880;SDS011;67077;50.298;18.996;2023-07-13T03:32:13;6.70;;;4.40;;
77880;SDS011;67077;50.298;18.996;2023-07-13T03:34:41;9.40;;;4.90;;
77880;SDS011;67077;50.298;18.996;2023-07-13T03:37:08;10.10;;;4.80;;
77880;SDS011;67077;50.298;18.996;2023-07-13T03:39:36;8.20;;;4.60;;
77880;SDS011;67077;50.298;18.996;2023-07-13T03:42:04;8.20;;;4.80;;
77880;SDS011;67077;50.298;18.996;2023-07-13T03:44:33;7.20;;;4.80;;
77880;SDS011;67077;50.298;18.996;2023-07-13T03:47:01;8.30;;;4.90;;
77880;SDS011;67077;50.298;18.996;2023-07-13T03:49:29;10.10;;;5.30;;
77880;SDS011;67077;50.298;18.996;2023-07-13T03:51:57;7.30;;;4.90;;
77880;SDS011;67077;50.298;18.996;2023-07-13T03:54:25;9.40;;;5.40;;
77880;SDS011;67077;50.298;18.996;2023-07-13T03:56:53;6.40;;;4.80;;
77880;SDS011;67077;50.298;18.996;2023-07-13T03:59:21;6.90;;;5.10;;
77880;SDS011;67077;50.298;18.996;2023-07-13T04:01:49;9.90;;;5.40;;
77880;SDS011;67077;50.298;18.996;2023-07-13T04:04:17;8.00;;;5.20;;
77880;SDS011;67077;50.298;18.996;2023-07-13T04:06:46;8.90;;;5.20;;
77880;SDS011;67077;50.298;18.996;2023-07-13T04:09:13;8.10;;;5.40;;
77880;SDS011;67077;50.298;18.996;2023-07-13T04:11:42;8.60;;;5.50;;
77880;SDS011;67077;50.298;18.996;2023-07-13T04:14:10;12.20;;;6.20;;
77880;SDS011;67077;50.298;18.996;2023-07-13T04:16:38;8.50;;;5.50;;
77880;SDS011;67077;50.298;18.996;2023-07-13T04:19:06;11.80;;;5.70;;
77880;SDS011;67077;50.298;18.996;2023-07-13T04:21:37;7.20;;;4.90;;
77880;SDS011;67077;50.298;18.996;2023-07-13T04:24:05;16.10;;;5.50;;
77880;SDS011;67077;50.298;18.996;2023-07-13T04:26:33;7.20;;;5.40;;
77880;SDS011;67077;50.298;18.996;2023-07-13T04:29:04;9.70;;;5.30;;
77880;SDS011;67077;50.298;18.996;2023-07-13T04:31:32;7.10;;;4.90;;
77880;SDS011;67077;50.298;18.996;2023-07-13T04:34:01;8.50;;;5.50;;
77880;SDS011;67077;50.298;18.996;2023-07-13T04:36:30;7.50;;;5.30;;
77880;SDS011;67077;50.298;18.996;2023-07-13T04:38:58;8.70;;;5.80;;
77880;SDS011;67077;50.298;18.996;2023-07-13T04:41:26;8.90;;;5.50;;
77880;SDS011;67077;50.298;18.996;2023-07-13T04:43:55;11.80;;;5.80;;
77880;SDS011;67077;50.298;18.996;2023-07-13T04:46:23;11.10;;;6.20;;
77880;SDS011;67077;50.298;18.996;2023-07-13T04:48:52;16.00;;;7.20;;
77880;SDS011;67077;50.298;18.996;2023-07-13T04:51:21;12.20;;;7.20;;
77880;SDS011;67077;50.298;18.996;2023-07-13T04:53:48;14.10;;;7.00;;
77880;SDS011;67077;50.298;18.996;2023-07-13T04:56:16;11.10;;;6.40;;
77880;SDS011;67077;50.298;18.996;2023-07-13T04:58:44;11.50;;;6.90;;
77880;SDS011;67077;50.298;18.996;2023-07-13T05:01:12;11.10;;;7.00;;
77880;SDS011;67077;50.298;18.996;2023-07-13T05:03:42;10.30;;;6.20;;
77880;SDS011;67077;50.298;18.996;2023-07-13T05:06:10;11.50;;;7.20;;
77880;SDS011;67077;50.298;18.996;2023-07-13T05:08:38;13.40;;;7.70;;
77880;SDS011;67077;50.298;18.996;2023-07-13T05:11:07;12.90;;;7.80;;
77880;SDS011;67077;50.298;18.996;2023-07-13T05:13:35;14.70;;;8.30;;
77880;SDS011;67077;50.298;18.996;2023-07-13T05:16:03;14.50;;;8.20;;
77880;SDS011;67077;50.298;18.996;2023-07-13T05:18:36;15.30;;;8.10;;
77880;SDS011;67077;50.298;18.996;2023-07-13T05:21:06;14.80;;;8.10;;
77880;SDS011;67077;50.298;18.996;2023-07-13T05:23:36;15.60;;;7.90;;
77880;SDS011;67077;50.298;18.996;2023-07-13T05:26:05;14.60;;;7.80;;
77880;SDS011;67077;50.298;18.996;2023-07-13T05:28:33;15.60;;;8.30;;
77880;SDS011;67077;50.298;18.996;2023-07-13T05:31:01;13.00;;;8.30;;
77880;SDS011;67077;50.298;18.996;2023-07-13T05:33:29;16.00;;;8.40;;
77880;SDS011;67077;50.298;18.996;2023-07-13T05:35:57;18.60;;;8.10;;
77880;SDS011;67077;50.298;18.996;2023-07-13T05:38:25;15.00;;;8.40;;
77880;SDS011;67077;50.298;18.996;2023-07-13T05:40:54;12.60;;;7.70;;
77880;SDS011;67077;50.298;18.996;2023-07-13T05:43:24;15.60;;;8.30;;
77880;SDS011;67077;50.298;18.996;2023-07-13T05:45:53;13.10;;;7.80;;
77880;SDS011;67077;50.298;18.996;2023-07-13T05:48:22;13.50;;;7.70;;
77880;SDS011;67077;50.298;18.996;2023-07-13T05:50:51;17.20;;;7.60;;
77880;SDS011;67077;50.298;18.996;2023-07-13T05:53:19;14.20;;;8.10;;
77880;SDS011;67077;50.298;18.996;2023-07-13T05:55:47;12.70;;;7.40;;
77880;SDS011;67077;50.298;18.996;2023-07-13T05:58:17;13.20;;;7.20;;
77880;SDS011;67077;50.298;18.996;2023-07-13T06:00:46;12.40;;;7.30;;
77880;SDS011;67077;50.298;18.996;2023-07-13T06:03:15;11.10;;;6.90;;
77880;SDS011;67077;50.298;18.996;2023-07-13T06:05:43;11.90;;;7.80;;
77880;SDS011;67077;50.298;18.996;2023-07-13T06:08:11;14.70;;;8.40;;
77880;SDS011;67077;50.298;18.996;2023-07-13T06:10:39;13.20;;;8.20;;
77880;SDS011;67077;50.298;18.996;2023-07-13T06:13:07;15.40;;;9.40;;
77880;SDS011;67077;50.298;18.996;2023-07-13T06:15:35;15.90;;;8.50;;
77880;SDS011;67077;50.298;18.996;2023-07-13T06:18:03;13.80;;;8.60;;
77880;SDS011;67077;50.298;18.996;2023-07-13T06:20:33;16.90;;;9.10;;
77880;SDS011;67077;50.298;18.996;2023-07-13T06:23:02;12.70;;;8.30;;
77880;SDS011;67077;50.298;18.996;2023-07-13T06:25:30;15.40;;;7.70;;
77880;SDS011;67077;50.298;18.996;2023-07-13T06:27:58;12.60;;;7.40;;
77880;SDS011;67077;50.298;18.996;2023-07-13T06:30:26;12.90;;;7.40;;
77880;SDS011;67077;50.298;18.996;2023-07-13T06:32:54;13.40;;;7.20;;
77880;SDS011;67077;50.298;18.996;2023-07-13T06:35:22;16.70;;;7.40;;
77880;SDS011;67077;50.298;18.996;2023-07-13T06:37:56;12.30;;;7.50;;
77880;SDS011;67077;50.298;18.996;2023-07-13T06:40:24;14.00;;;7.30;;
77880;SDS011;67077;50.298;18.996;2023-07-13T06:42:52;12.90;;;7.50;;
77880;SDS011;67077;50.298;18.996;2023-07-13T06:45:20;12.50;;;7.20;;
77880;SDS011;67077;50.298;18.996;2023-07-13T06:47:47;13.20;;;6.70;;
77880;SDS011;67077;50.298;18.996;2023-07-13T06:50:16;11.90;;;6.50;;
77880;SDS011;67077;50.298;18.996;2023-07-13T06:52:45;10.00;;;5.80;;
77880;SDS011;67077;50.298;18.996;2023-07-13T06:55:13;10.40;;;5.80;;
77880;SDS011;67077;50.298;18.996;2023-07-13T06:57:41;8.20;;;5.80;;
77880;SDS011;67077;50.298;18.996;2023-07-13T07:00:09;10.30;;;5.50;;
77880;SDS011;67077;50.298;18.996;2023-07-13T07:02:38;9.50;;;5.50;;
77880;SDS011;67077;50.298;18.996;2023-07-13T07:05:06;9.50;;;5.30;;
77880;SDS011;67077;50.298;18.996;2023-07-13T07:07:34;9.10;;;5.30;;
77880;SDS011;67077;50.298;18.996;2023-07-13T07:10:02;11.10;;;5.70;;
77880;SDS011;67077;50.298;18.996;2023-07-13T07:12:30;8.90;;;5.20;;
77880;SDS011;67077;50.298;18.996;2023-07-13T07:14:58;10.90;;;5.30;;
77880;SDS011;67077;50.298;18.996;2023-07-13T07:17:27;8.20;;;5.20;;
77880;SDS011;67077;50.298;18.996;2023-07-13T07:19:55;8.50;;;4.90;;
77880;SDS011;67077;50.298;18.996;2023-07-13T07:22:23;9.30;;;4.70;;
77880;SDS011;67077;50.298;18.996;2023-07-13T07:27:22;8.20;;;4.90;;
77880;SDS011;67077;50.298;18.996;2023-07-13T07:29:51;9.70;;;5.40;;
77880;SDS011;67077;50.298;18.996;2023-07-13T07:32:19;10.30;;;6.50;;
77880;SDS011;67077;50.298;18.996;2023-07-13T07:34:48;9.00;;;5.90;;
77880;SDS011;67077;50.298;18.996;2023-07-13T07:37:16;9.90;;;5.40;;
77880;SDS011;67077;50.298;18.996;2023-07-13T07:39:44;10.70;;;5.40;;
77880;SDS011;67077;50.298;18.996;2023-07-13T07:42:12;9.80;;;6.00;;
77880;SDS011;67077;50.298;18.996;2023-07-13T07:44:40;10.90;;;5.70;;
77880;SDS011;67077;50.298;18.996;2023-07-13T07:47:08;9.70;;;5.30;;
77880;SDS011;67077;50.298;18.996;2023-07-13T07:49:37;9.00;;;5.50;;
77880;SDS011;67077;50.298;18.996;2023-07-13T07:52:06;9.70;;;5.60;;
77880;SDS011;67077;50.298;18.996;2023-07-13T07:54:34;10.00;;;5.70;;
77880;SDS011;67077;50.298;18.996;2023-07-13T07:57:02;9.60;;;6.00;;
77880;SDS011;67077;50.298;18.996;2023-07-13T07:59:30;13.50;;;6.00;;
77880;SDS011;67077;50.298;18.996;2023-07-13T08:01:58;10.30;;;5.80;;
77880;SDS011;67077;50.298;18.996;2023-07-13T08:04:26;11.70;;;7.00;;
77880;SDS011;67077;50.298;18.996;2023-07-13T08:06:55;11.50;;;7.10;;
77880;SDS011;67077;50.298;18.996;2023-07-13T08:09:26;17.50;;;7.70;;
77880;SDS011;67077;50.298;18.996;2023-07-13T08:11:53;16.60;;;8.00;;
77880;SDS011;67077;50.298;18.996;2023-07-13T08:14:23;12.90;;;7.60;;
77880;SDS011;67077;50.298;18.996;2023-07-13T08:16:51;12.80;;;7.30;;
77880;SDS011;67077;50.298;18.996;2023-07-13T08:19:19;8.40;;;5.30;;
77880;SDS011;67077;50.298;18.996;2023-07-13T08:21:47;10.00;;;5.20;;
77880;SDS011;67077;50.298;18.996;2023-07-13T08:24:16;6.80;;;5.10;;
77880;SDS011;67077;50.298;18.996;2023-07-13T08:26:47;12.20;;;6.00;;
77880;SDS011;67077;50.298;18.996;2023-07-13T08:29:15;10.10;;;6.40;;
77880;SDS011;67077;50.298;18.996;2023-07-13T08:31:43;11.30;;;6.80;;
77880;SDS011;67077;50.298;18.996;2023-07-13T08:34:11;10.40;;;6.30;;
77880;SDS011;67077;50.298;18.996;2023-07-13T08:36:42;13.80;;;6.60;;
77880;SDS011;67077;50.298;18.996;2023-07-13T08:39:10;9.80;;;6.70;;
77880;SDS011;67077;50.298;18.996;2023-07-13T08:41:38;14.30;;;8.00;;
77880;SDS011;67077;50.298;18.996;2023-07-13T08:44:10;13.80;;;7.90;;
77880;SDS011;67077;50.298;18.996;2023-07-13T08:46:51;11.80;;;7.40;;
77880;SDS011;67077;50.298;18.996;2023-07-13T08:49:21;11.10;;;7.00;;
77880;SDS011;67077;50.298;18.996;2023-07-13T08:52:02;15.80;;;7.10;;
77880;SDS011;67077;50.298;18.996;2023-07-13T08:54:44;12.50;;;6.80;;
77880;SDS011;67077;50.298;18.996;2023-07-13T08:57:18;12.30;;;6.40;;
77880;SDS011;67077;50.298;18.996;2023-07-13T08:59:50;10.00;;;6.40;;
77880;SDS011;67077;50.298;18.996;2023-07-13T09:05:30;12.50;;;6.60;;
77880;SDS011;67077;50.298;18.996;2023-07-13T09:10:47;12.70;;;6.50;;
77880;SDS011;67077;50.298;18.996;2023-07-13T09:16:06;9.90;;;6.20;;
77880;SDS011;67077;50.298;18.996;2023-07-13T09:18:41;12.00;;;6.50;;
77880;SDS011;67077;50.298;18.996;2023-07-13T09:21:15;10.50;;;6.30;;
77880;SDS011;67077;50.298;18.996;2023-07-13T09:23:45;10.20;;;5.70;;
77880;SDS011;67077;50.298;18.996;2023-07-13T09:26:20;15.00;;;7.60;;
77880;SDS011;67077;50.298;18.996;2023-07-13T09:28:55;15.50;;;8.20;;
77880;SDS011;67077;50.298;18.996;2023-07-13T09:31:34;13.30;;;7.50;;
77880;SDS011;67077;50.298;18.996;2023-07-13T09:34:15;12.90;;;8.00;;
77880;SDS011;67077;50.298;18.996;2023-07-13T09:36:45;13.70;;;8.00;;
77880;SDS011;67077;50.298;18.996;2023-07-13T09:39:35;11.40;;;7.60;;
77880;SDS011;67077;50.298;18.996;2023-07-13T09:44:52;13.70;;;7.40;;
77880;SDS011;67077;50.298;18.996;2023-07-13T09:47:25;11.30;;;6.50;;
77880;SDS011;67077;50.298;18.996;2023-07-13T09:50:04;8.10;;;6.20;;
77880;SDS011;67077;50.298;18.996;2023-07-13T09:52:45;11.20;;;6.30;;
77880;SDS011;67077;50.298;18.996;2023-07-13T09:58:13;7.60;;;4.30;;
77880;SDS011;67077;50.298;18.996;2023-07-13T10:00:43;8.90;;;4.00;;
77880;SDS011;67077;50.298;18.996;2023-07-13T10:03:51;8.40;;;3.60;;
77880;SDS011;67077;50.298;18.996;2023-07-13T10:06:22;6.00;;;3.30;;
77880;SDS011;67077;50.298;18.996;2023-07-13T10:09:09;6.20;;;2.70;;
77880;SDS011;67077;50.298;18.996;2023-07-13T10:11:47;7.30;;;2.90;;
77880;SDS011;67077;50.298;18.996;2023-07-13T10:14:23;5.40;;;3.10;;
77880;SDS011;67077;50.298;18.996;2023-07-13T10:17:00;3.80;;;2.10;;
77880;SDS011;67077;50.298;18.996;2023-07-13T10:19:32;3.70;;;2.20;;
77880;SDS011;67077;50.298;18.996;2023-07-13T10:22:10;4.20;;;2.40;;
77880;SDS011;67077;50.298;18.996;2023-07-13T10:24:46;2.90;;;2.00;;
77880;SDS011;67077;50.298;18.996;2023-07-13T10:27:18;3.10;;;1.80;;
77880;SDS011;67077;50.298;18.996;2023-07-13T10:29:59;7.20;;;2.00;;
77880;SDS011;67077;50.298;18.996;2023-07-13T10:32:29;4.30;;;1.90;;
77880;SDS011;67077;50.298;18.996;2023-07-13T10:34:57;2.40;;;1.70;;
77880;SDS011;67077;50.298;18.996;2023-07-13T10:37:30;2.20;;;1.70;;
77880;SDS011;67077;50.298;18.996;2023-07-13T10:40:13;5.00;;;1.70;;
77880;SDS011;67077;50.298;18.996;2023-07-13T10:42:47;4.10;;;2.00;;
77880;SDS011;67077;50.298;18.996;2023-07-13T10:45:18;3.00;;;2.00;;
77880;SDS011;67077;50.298;18.996;2023-07-13T10:47:52;4.10;;;2.50;;
77880;SDS011;67077;50.298;18.996;2023-07-13T10:50:24;3.90;;;2.50;;
77880;SDS011;67077;50.298;18.996;2023-07-13T10:52:55;5.90;;;2.50;;
77880;SDS011;67077;50.298;18.996;2023-07-13T10:55:54;4.30;;;2.40;;
77880;SDS011;67077;50.298;18.996;2023-07-13T10:58:24;4.40;;;2.70;;
77880;SDS011;67077;50.298;18.996;2023-07-13T11:01:14;6.50;;;2.60;;
77880;SDS011;67077;50.298;18.996;2023-07-13T11:12:00;5.80;;;2.70;;
77880;SDS011;67077;50.298;18.996;2023-07-13T11:14:34;3.80;;;2.30;;
77880;SDS011;67077;50.298;18.996;2023-07-13T11:22:44;3.60;;;2.60;;
77880;SDS011;67077;50.298;18.996;2023-07-13T11:25:24;4.30;;;2.40;;
77880;SDS011;67077;50.298;18.996;2023-07-13T11:30:40;4.40;;;2.30;;
77880;SDS011;67077;50.298;18.996;2023-07-13T11:36:15;4.20;;;2.30;;
77880;SDS011;67077;50.298;18.996;2023-07-13T11:41:43;4.30;;;2.20;;
77880;SDS011;67077;50.298;18.996;2023-07-13T11:44:17;3.80;;;2.40;;
77880;SDS011;67077;50.298;18.996;2023-07-13T11:46:52;4.40;;;2.40;;
77880;SDS011;67077;50.298;18.996;2023-07-13T11:49:25;3.30;;;2.20;;
77880;SDS011;67077;50.298;18.996;2023-07-13T11:51:54;3.40;;;2.10;;
77880;SDS011;67077;50.298;18.996;2023-07-13T11:56:58;4.20;;;2.40;;
77880;SDS011;67077;50.298;18.996;2023-07-13T11:59:40;4.00;;;2.30;;
77880;SDS011;67077;50.298;18.996;2023-07-13T12:02:14;4.60;;;2.40;;
77880;SDS011;67077;50.298;18.996;2023-07-13T12:04:50;3.70;;;2.40;;
77880;SDS011;67077;50.298;18.996;2023-07-13T12:07:19;4.70;;;2.70;;
77880;SDS011;67077;50.298;18.996;2023-07-13T12:09:47;4.30;;;2.00;;
77880;SDS011;67077;50.298;18.996;2023-07-13T12:12:19;3.40;;;2.20;;
77880;SDS011;67077;50.298;18.996;2023-07-13T12:14:53;5.20;;;2.60;;
77880;SDS011;67077;50.298;18.996;2023-07-13T12:17:23;4.20;;;2.50;;
77880;SDS011;67077;50.298;18.996;2023-07-13T12:19:52;4.90;;;2.60;;
77880;SDS011;67077;50.298;18.996;2023-07-13T12:22:21;4.20;;;2.50;;
77880;SDS011;67077;50.298;18.996;2023-07-13T12:24:50;4.50;;;2.80;;
77880;SDS011;67077;50.298;18.996;2023-07-13T12:27:24;3.00;;;2.50;;
77880;SDS011;67077;50.298;18.996;2023-07-13T12:29:59;5.00;;;2.50;;
77880;SDS011;67077;50.298;18.996;2023-07-13T12:32:27;8.20;;;2.90;;
77880;SDS011;67077;50.298;18.996;2023-07-13T12:35:01;4.50;;;2.50;;
77880;SDS011;67077;50.298;18.996;2023-07-13T12:37:42;2.50;;;2.00;;
77880;SDS011;67077;50.298;18.996;2023-07-13T12:40:18;3.30;;;2.40;;
77880;SDS011;67077;50.298;18.996;2023-07-13T12:42:50;4.60;;;2.70;;
77880;SDS011;67077;50.298;18.996;2023-07-13T12:45:24;8.90;;;3.00;;
77880;SDS011;67077;50.298;18.996;2023-07-13T12:47:56;3.40;;;2.20;;
77880;SDS011;67077;50.298;18.996;2023-07-13T12:53:04;5.80;;;3.30;;
77880;SDS011;67077;50.298;18.996;2023-07-13T12:58:20;3.80;;;2.40;;
77880;SDS011;67077;50.298;18.996;2023-07-13T13:01:01;5.70;;;3.90;;
77880;SDS011;67077;50.298;18.996;2023-07-13T13:06:05;7.90;;;3.90;;
77880;SDS011;67077;50.298;18.996;2023-07-13T13:08:42;7.60;;;4.70;;
77880;SDS011;67077;50.298;18.996;2023-07-13T13:11:11;5.00;;;3.80;;
77880;SDS011;67077;50.298;18.996;2023-07-13T13:13:39;5.80;;;4.40;;
77880;SDS011;67077;50.298;18.996;2023-07-13T13:18:39;12.60;;;8.40;;
77880;SDS011;67077;50.298;18.996;2023-07-13T13:21:08;9.00;;;6.60;;
77880;SDS011;67077;50.298;18.996;2023-07-13T13:23:38;14.20;;;9.70;;
77880;SDS011;67077;50.298;18.996;2023-07-13T13:26:12;11.00;;;9.00;;
77880;SDS011;67077;50.298;18.996;2023-07-13T13:28:43;8.90;;;6.90;;
77880;SDS011;67077;50.298;18.996;2023-07-13T13:31:12;5.70;;;3.60;;
77880;SDS011;67077;50.298;18.996;2023-07-13T13:33:42;5.30;;;3.30;;
77880;SDS011;67077;50.298;18.996;2023-07-13T13:36:16;4.40;;;3.40;;
77880;SDS011;67077;50.298;18.996;2023-07-13T13:38:48;5.00;;;3.90;;
77880;SDS011;67077;50.298;18.996;2023-07-13T13:41:17;6.80;;;5.40;;
77880;SDS011;67077;50.298;18.996;2023-07-13T13:43:45;6.60;;;4.70;;
77880;SDS011;67077;50.298;18.996;2023-07-13T13:46:18;5.30;;;3.80;;
77880;SDS011;67077;50.298;18.996;2023-07-13T13:48:49;4.20;;;3.20;;
77880;SDS011;67077;50.298;18.996;2023-07-13T13:51:21;9.10;;;5.40;;
77880;SDS011;67077;50.298;18.996;2023-07-13T13:53:51;13.60;;;6.10;;
77880;SDS011;67077;50.298;18.996;2023-07-13T13:56:21;6.20;;;2.70;;
77880;SDS011;67077;50.298;18.996;2023-07-13T13:58:48;4.00;;;2.30;;
77880;SDS011;67077;50.298;18.996;2023-07-13T14:01:17;2.90;;;2.20;;
77880;SDS011;67077;50.298;18.996;2023-07-13T14:03:50;3.80;;;2.20;;
77880;SDS011;67077;50.298;18.996;2023-07-13T14:06:21;6.10;;;4.00;;
77880;SDS011;67077;50.298;18.996;2023-07-13T14:08:49;5.10;;;3.40;;
77880;SDS011;67077;50.298;18.996;2023-07-13T14:11:18;7.00;;;3.60;;
77880;SDS011;67077;50.298;18.996;2023-07-13T14:13:48;6.00;;;4.40;;
77880;SDS011;67077;50.298;18.996;2023-07-13T14:16:21;8.00;;;4.10;;
77880;SDS011;67077;50.298;18.996;2023-07-13T14:18:55;8.50;;;3.50;;
77880;SDS011;67077;50.298;18.996;2023-07-13T14:21:27;6.10;;;3.40;;
77880;SDS011;67077;50.298;18.996;2023-07-13T14:23:56;6.50;;;3.50;;
77880;SDS011;67077;50.298;18.996;2023-07-13T14:26:25;6.20;;;4.90;;
77880;SDS011;67077;50.298;18.996;2023-07-13T14:28:55;4.90;;;3.00;;
77880;SDS011;67077;50.298;18.996;2023-07-13T14:31:26;6.40;;;3.40;;
77880;SDS011;67077;50.298;18.996;2023-07-13T14:33:58;14.50;;;10.10;;
77880;SDS011;67077;50.298;18.996;2023-07-13T14:39:09;6.60;;;4.20;;
77880;SDS011;67077;50.298;18.996;2023-07-13T14:41:40;10.20;;;5.80;;
77880;SDS011;67077;50.298;18.996;2023-07-13T14:44:10;8.30;;;6.40;;
77880;SDS011;67077;50.298;18.996;2023-07-13T14:46:44;16.80;;;12.70;;
77880;SDS011;67077;50.298;18.996;2023-07-13T14:51:50;6.30;;;4.40;;
77880;SDS011;67077;50.298;18.996;2023-07-13T14:54:19;5.60;;;4.40;;
77880;SDS011;67077;50.298;18.996;2023-07-13T14:56:47;6.90;;;4.80;;
77880;SDS011;67077;50.298;18.996;2023-07-13T14:59:15;7.90;;;6.40;;
77880;SDS011;67077;50.298;18.996;2023-07-13T15:01:43;7.80;;;4.70;;
77880;SDS011;67077;50.298;18.996;2023-07-13T15:04:11;8.70;;;4.90;;
77880;SDS011;67077;50.298;18.996;2023-07-13T15:06:59;8.60;;;6.80;;
77880;SDS011;67077;50.298;18.996;2023-07-13T15:09:29;4.40;;;3.50;;
77880;SDS011;67077;50.298;18.996;2023-07-13T15:11:58;7.00;;;6.30;;
77880;SDS011;67077;50.298;18.996;2023-07-13T15:14:26;10.60;;;8.70;;
77880;SDS011;67077;50.298;18.996;2023-07-13T15:16:55;6.20;;;4.50;;
77880;SDS011;67077;50.298;18.996;2023-07-13T15:19:23;4.90;;;3.90;;
77880;SDS011;67077;50.298;18.996;2023-07-13T15:21:53;4.70;;;3.90;;
77880;SDS011;67077;50.298;18.996;2023-07-13T15:24:25;4.30;;;3.80;;
77880;SDS011;67077;50.298;18.996;2023-07-13T15:26:53;4.10;;;3.60;;
77880;SDS011;67077;50.298;18.996;2023-07-13T15:29:21;4.70;;;3.80;;
77880;SDS011;67077;50.298;18.996;2023-07-13T15:31:50;4.30;;;3.70;;
77880;SDS011;67077;50.298;18.996;2023-07-13T15:34:20;7.10;;;4.40;;
77880;SDS011;67077;50.298;18.996;2023-07-13T15:36:52;4.50;;;4.10;;
77880;SDS011;67077;50.298;18.996;2023-07-13T15:39:20;9.30;;;4.70;;
77880;SDS011;67077;50.298;18.996;2023-07-13T15:41:48;10.00;;;5.00;;
77880;SDS011;67077;50.298;18.996;2023-07-13T15:44:26;4.90;;;4.70;;
77880;SDS011;67077;50.298;18.996;2023-07-13T15:46:57;6.30;;;4.60;;